^^
Datos históricos de la estación: Murcia-Puente Tocinos
Diario Informe para Enero 30, 2019 Unidades:  Métrico    Inglés   Ambas
Diario Semanal Mensual Anual Configurable
  Máximo: Mínimo: Media:
Temperatura: 17.7 °C 10.9 °C 14.8 °C
Punto de rocio: 4.9 °C -0.3 °C 2.6 °C
Humedad: 61% 30% 45%
Velocidad viento: 19.8km/h 1.6km/h 8.4km/h
Racha viento: 40.7km/h - -
Viento- - WSW
Presión: 1011.8 hPa 1008.1 hPa -
Precipitación: 0.0 mm    
Historical Graphs
 
 
Tabla de datos para Enero 30, 2019
Hora Temperatura Punto de rocio Presión Viento Velocidad viento Racha viento Humedad Intensidad lluvia(por hora) Nubes
00:04 14.7 °C 4.1 °C 1009.7 hPa NNW 4.7 km/h 7.4 km/h 49% 0.0 mm CLR
00:09 14.6 °C 4.0 °C 1009.7 hPa West 3.9 km/h 5.8 km/h 49% 0.0 mm CLR
00:14 14.8 °C 4.4 °C 1009.7 hPa West 3.9 km/h 14.8 km/h 50% 0.0 mm CLR
00:19 14.9 °C 4.3 °C 1009.8 hPa SE 5.8 km/h 7.4 km/h 49% 0.0 mm CLR
00:24 14.8 °C 4.2 °C 1009.8 hPa WSW 5.8 km/h 7.6 km/h 49% 0.0 mm CLR
00:29 15.0 °C 4.4 °C 1009.8 hPa SSE 5.0 km/h 20.4 km/h 49% 0.0 mm CLR
00:34 15.2 °C 4.6 °C 1009.7 hPa NW 5.0 km/h 16.7 km/h 49% 0.0 mm CLR
00:39 15.6 °C 4.6 °C 1009.7 hPa West 10.0 km/h 16.7 km/h 48% 0.0 mm CLR
00:44 15.5 °C 4.2 °C 1009.7 hPa SE 10.0 km/h 11.1 km/h 47% 0.0 mm CLR
00:49 15.3 °C 4.3 °C 1009.6 hPa SSE 8.7 km/h 9.3 km/h 48% 0.0 mm CLR
00:54 15.2 °C 4.3 °C 1009.6 hPa SSW 8.7 km/h 13.0 km/h 48% 0.0 mm CLR
00:59 15.2 °C 4.6 °C 1009.6 hPa WSW 5.8 km/h 10.0 km/h 49% 0.0 mm CLR
01:04 15.2 °C 4.6 °C 1009.7 hPa SW 5.8 km/h 7.4 km/h 49% 0.0 mm CLR
01:09 15.1 °C 4.4 °C 1009.7 hPa South 6.4 km/h 11.1 km/h 49% 0.0 mm CLR
01:14 15.1 °C 4.4 °C 1009.7 hPa SW 6.4 km/h 7.4 km/h 49% 0.0 mm CLR
01:19 15.1 °C 4.4 °C 1009.6 hPa SW 5.8 km/h 5.0 km/h 49% 0.0 mm CLR
01:24 15.1 °C 4.4 °C 1009.6 hPa SW 5.8 km/h 11.9 km/h 49% 0.0 mm CLR
01:29 15.2 °C 4.6 °C 1009.6 hPa SW 5.8 km/h 13.0 km/h 49% 0.0 mm CLR
01:34 15.3 °C 4.6 °C 1009.3 hPa SW 5.8 km/h 16.7 km/h 49% 0.0 mm CLR
01:39 15.4 °C 4.4 °C 1009.3 hPa South 8.7 km/h 12.2 km/h 48% 0.0 mm CLR
01:44 15.4 °C 4.7 °C 1009.3 hPa SSW 8.7 km/h 15.6 km/h 49% 0.0 mm CLR
01:49 15.6 °C 4.6 °C 1009.3 hPa SSW 11.1 km/h 22.2 km/h 48% 0.0 mm CLR
01:54 15.8 °C 4.8 °C 1009.3 hPa SW 11.1 km/h 40.7 km/h 48% 0.0 mm CLR
01:59 16.1 °C 4.8 °C 1009.3 hPa SSW 18.3 km/h 25.9 km/h 47% 0.0 mm CLR
02:04 16.2 °C 4.6 °C 1009.4 hPa SW 18.3 km/h 35.2 km/h 46% 0.0 mm CLR
02:09 16.2 °C 4.6 °C 1009.4 hPa SW 19.8 km/h 27.8 km/h 46% 0.0 mm CLR
02:14 16.3 °C 4.7 °C 1009.4 hPa SW 19.8 km/h 35.2 km/h 46% 0.0 mm CLR
02:19 16.2 °C 4.9 °C 1009.3 hPa West 19.8 km/h 29.6 km/h 47% 0.0 mm CLR
02:24 16.3 °C 4.7 °C 1009.3 hPa NW 19.8 km/h 27.8 km/h 46% 0.0 mm CLR
02:29 16.2 °C 4.9 °C 1009.3 hPa West 19.8 km/h 25.9 km/h 47% 0.0 mm CLR
02:34 16.1 °C 4.8 °C 1009.3 hPa West 19.8 km/h 25.9 km/h 47% 0.0 mm CLR
02:39 15.8 °C 4.8 °C 1009.3 hPa NW 16.1 km/h 29.6 km/h 48% 0.0 mm CLR
02:44 15.8 °C 4.8 °C 1009.3 hPa SSW 16.1 km/h 20.4 km/h 48% 0.0 mm CLR
02:49 15.6 °C 4.6 °C 1009.5 hPa WSW 13.7 km/h 13.0 km/h 48% 0.0 mm CLR
02:54 15.4 °C 4.4 °C 1009.5 hPa SW 13.7 km/h 16.7 km/h 48% 0.0 mm CLR
02:59 15.4 °C 4.4 °C 1009.5 hPa West 10.0 km/h 18.5 km/h 48% 0.0 mm CLR
03:04 15.5 °C 4.5 °C 1009.4 hPa SW 10.0 km/h 18.5 km/h 48% 0.0 mm CLR
03:09 15.5 °C 4.5 °C 1009.4 hPa West 10.3 km/h 13.0 km/h 48% 0.0 mm CLR
03:14 15.4 °C 4.4 °C 1009.4 hPa SW 10.3 km/h 9.5 km/h 48% 0.0 mm CLR
03:19 15.3 °C 4.6 °C 1009.7 hPa SE 7.6 km/h 9.3 km/h 49% 0.0 mm CLR
03:24 14.9 °C 4.6 °C 1009.7 hPa SSE 7.6 km/h 14.8 km/h 50% 0.0 mm CLR
03:29 14.3 °C 4.6 °C 1009.7 hPa SSE 5.8 km/h 11.1 km/h 52% 0.0 mm CLR
03:34 13.8 °C 4.4 °C 1009.8 hPa SE 5.8 km/h 10.0 km/h 53% 0.0 mm CLR
03:39 13.5 °C 4.4 °C 1009.8 hPa SE 7.6 km/h 9.3 km/h 54% 0.0 mm CLR
03:44 13.4 °C 4.3 °C 1009.8 hPa South 7.6 km/h 7.4 km/h 54% 0.0 mm CLR
03:49 13.4 °C 4.3 °C 1009.8 hPa SE 5.0 km/h 9.3 km/h 54% 0.0 mm CLR
03:54 13.4 °C 4.6 °C 1009.8 hPa SSW 5.0 km/h 5.6 km/h 55% 0.0 mm CLR
03:59 13.3 °C 4.4 °C 1009.8 hPa ESE 5.0 km/h 9.3 km/h 55% 0.0 mm CLR
04:04 13.2 °C 4.3 °C 1009.8 hPa SE 5.0 km/h 9.3 km/h 55% 0.0 mm CLR
04:09 13.2 °C 4.3 °C 1009.8 hPa SE 4.7 km/h 5.6 km/h 55% 0.0 mm CLR
04:14 13.3 °C 4.2 °C 1009.8 hPa SW 4.7 km/h 8.4 km/h 54% 0.0 mm CLR
04:19 13.4 °C 4.3 °C 1009.9 hPa SSW 4.7 km/h 8.7 km/h 54% 0.0 mm CLR
04:24 13.4 °C 4.0 °C 1009.9 hPa SW 4.7 km/h 10.3 km/h 53% 0.0 mm CLR
04:29 13.9 °C 3.9 °C 1009.9 hPa WNW 6.4 km/h 23.7 km/h 51% 0.0 mm CLR
04:34 14.6 °C 3.7 °C 1009.7 hPa NW 6.4 km/h 25.9 km/h 48% 0.0 mm CLR
04:39 14.9 °C 3.7 °C 1009.7 hPa WNW 14.0 km/h 24.1 km/h 47% 0.0 mm CLR
04:44 15.1 °C 3.8 °C 1009.7 hPa NNW 14.0 km/h 20.4 km/h 47% 0.0 mm CLR
04:49 15.1 °C 3.6 °C 1009.5 hPa West 13.0 km/h 22.2 km/h 46% 0.0 mm CLR
04:54 15.0 °C 3.4 °C 1009.5 hPa WNW 13.0 km/h 18.5 km/h 46% 0.0 mm CLR
04:59 14.9 °C 3.7 °C 1009.5 hPa West 11.9 km/h 11.1 km/h 47% 0.0 mm CLR
05:04 14.8 °C 3.6 °C 1009.5 hPa West 11.9 km/h 18.0 km/h 47% 0.0 mm CLR
05:09 14.9 °C 3.4 °C 1009.5 hPa WSW 9.5 km/h 24.1 km/h 46% 0.0 mm CLR
05:14 14.9 °C 3.4 °C 1009.5 hPa WSW 9.5 km/h 15.6 km/h 46% 0.0 mm CLR
05:19 14.9 °C 3.4 °C 1009.4 hPa West 11.1 km/h 25.9 km/h 46% 0.0 mm CLR
05:24 15.1 °C 3.6 °C 1009.4 hPa West 11.1 km/h 20.4 km/h 46% 0.0 mm CLR
05:29 15.0 °C 3.4 °C 1009.4 hPa WSW 16.1 km/h 16.7 km/h 46% 0.0 mm CLR
05:34 14.9 °C 3.4 °C 1009.5 hPa WSW 16.1 km/h 11.1 km/h 46% 0.0 mm CLR
05:39 14.8 °C 3.6 °C 1009.5 hPa SSE 8.4 km/h 8.4 km/h 47% 0.0 mm CLR
05:44 14.1 °C 3.6 °C 1009.5 hPa SE 8.4 km/h 11.1 km/h 49% 0.0 mm CLR
05:49 13.4 °C 3.4 °C 1009.6 hPa SE 6.9 km/h 11.1 km/h 51% 0.0 mm CLR
05:54 13.1 °C 3.4 °C 1009.6 hPa SSE 6.9 km/h 9.3 km/h 52% 0.0 mm CLR
05:59 12.8 °C 3.4 °C 1009.6 hPa SSE 6.9 km/h 9.3 km/h 53% 0.0 mm CLR
06:04 12.7 °C 3.3 °C 1009.6 hPa SSE 6.9 km/h 17.2 km/h 53% 0.0 mm CLR
06:09 12.8 °C 3.4 °C 1009.6 hPa South 8.7 km/h 20.4 km/h 53% 0.0 mm CLR
06:14 12.8 °C 3.4 °C 1009.6 hPa SSE 8.7 km/h 12.2 km/h 53% 0.0 mm CLR
06:19 12.8 °C 3.4 °C 1009.6 hPa SSE 10.3 km/h 10.0 km/h 53% 0.0 mm CLR
06:24 12.8 °C 3.4 °C 1009.6 hPa South 10.3 km/h 10.0 km/h 53% 0.0 mm CLR
06:29 12.8 °C 3.4 °C 1009.6 hPa SSW 8.4 km/h 9.3 km/h 53% 0.0 mm CLR
06:34 12.8 °C 3.4 °C 1009.6 hPa SSW 8.4 km/h 7.6 km/h 53% 0.0 mm CLR
06:39 12.8 °C 3.4 °C 1009.6 hPa SSW 6.4 km/h 9.3 km/h 53% 0.0 mm CLR
06:44 12.7 °C 3.3 °C 1009.6 hPa SW 6.4 km/h 7.6 km/h 53% 0.0 mm CLR
06:49 12.7 °C 3.3 °C 1009.4 hPa SW 6.4 km/h 9.3 km/h 53% 0.0 mm CLR
06:54 12.8 °C 3.4 °C 1009.4 hPa SSW 6.4 km/h 7.4 km/h 53% 0.0 mm CLR
06:59 12.7 °C 3.3 °C 1009.4 hPa SSE 5.8 km/h 9.3 km/h 53% 0.0 mm CLR
07:04 12.5 °C 3.4 °C 1009.4 hPa SSE 5.8 km/h 7.4 km/h 54% 0.0 mm CLR
07:09 12.2 °C 3.4 °C 1009.4 hPa SE 6.4 km/h 9.3 km/h 55% 0.0 mm CLR
07:14 11.9 °C 3.4 °C 1009.4 hPa SSE 6.4 km/h 11.1 km/h 56% 0.0 mm CLR
07:19 11.6 °C 3.4 °C 1009.5 hPa South 8.4 km/h 11.1 km/h 57% 0.0 mm CLR
07:24 11.5 °C 3.3 °C 1009.5 hPa South 8.4 km/h 13.7 km/h 57% 0.0 mm CLR
07:29 11.6 °C 3.4 °C 1009.5 hPa South 9.5 km/h 11.1 km/h 57% 0.0 mm CLR
07:34 11.6 °C 3.4 °C 1009.8 hPa SSE 9.5 km/h 7.4 km/h 57% 0.0 mm CLR
07:39 11.6 °C 3.4 °C 1009.8 hPa SSE 6.4 km/h 11.1 km/h 57% 0.0 mm CLR
07:44 11.7 °C 3.2 °C 1009.8 hPa South 6.4 km/h 7.4 km/h 56% 0.0 mm CLR
07:49 11.8 °C 3.3 °C 1010.1 hPa South 5.8 km/h 7.4 km/h 56% 0.0 mm CLR
07:54 11.9 °C 3.4 °C 1010.1 hPa South 5.8 km/h 7.4 km/h 56% 0.0 mm CLR
07:59 12.0 °C 3.2 °C 1010.1 hPa South 5.0 km/h 7.4 km/h 55% 0.0 mm CLR
08:04 12.1 °C 3.3 °C 1010.2 hPa South 5.0 km/h 5.6 km/h 55% 0.0 mm CLR
08:10 12.1 °C 3.3 °C 1010.2 hPa SSW 5.0 km/h 7.6 km/h 55% 0.0 mm CLR
08:14 12.2 °C 3.4 °C 1010.2 hPa SW 5.0 km/h 9.3 km/h 55% 0.0 mm CLR
08:19 12.2 °C 3.4 °C 1010.5 hPa SW 5.8 km/h 7.4 km/h 55% 0.0 mm CLR
08:24 12.3 °C 3.5 °C 1010.5 hPa SW 5.8 km/h 11.1 km/h 55% 0.0 mm CLR
08:29 12.2 °C 3.4 °C 1010.5 hPa WSW 5.8 km/h 7.4 km/h 55% 0.0 mm CLR
08:34 12.2 °C 3.4 °C 1010.6 hPa West 5.8 km/h 7.4 km/h 55% 0.0 mm CLR
08:39 12.0 °C 3.5 °C 1010.6 hPa West 5.0 km/h 9.3 km/h 56% 0.0 mm CLR
08:44 11.9 °C 3.4 °C 1010.6 hPa West 5.0 km/h 3.9 km/h 56% 0.0 mm CLR
08:49 11.9 °C 3.7 °C 1010.6 hPa WSW 3.9 km/h 9.3 km/h 57% 0.0 mm CLR
08:54 11.8 °C 3.6 °C 1010.6 hPa SW 3.9 km/h 7.6 km/h 57% 0.0 mm CLR
08:59 11.9 °C 3.7 °C 1010.6 hPa SW 5.8 km/h 7.4 km/h 57% 0.0 mm CLR
09:04 12.1 °C 3.8 °C 1010.8 hPa WSW 5.8 km/h 7.4 km/h 57% 0.0 mm CLR
09:09 12.1 °C 3.8 °C 1010.8 hPa SE 5.0 km/h 8.4 km/h 57% 0.0 mm CLR
09:14 11.7 °C 3.7 °C 1010.8 hPa SSE 5.0 km/h 11.1 km/h 58% 0.0 mm CLR
09:19 11.3 °C 3.8 °C 1010.9 hPa SSE 6.4 km/h 11.1 km/h 60% 0.0 mm CLR
09:24 11.1 °C 3.8 °C 1010.9 hPa South 6.4 km/h 11.1 km/h 61% 0.0 mm CLR
09:29 10.9 °C 3.7 °C 1010.9 hPa SSE 8.4 km/h 9.3 km/h 61% 0.0 mm CLR
09:34 10.9 °C 3.7 °C 1011.0 hPa SSW 8.4 km/h 11.1 km/h 61% 0.0 mm CLR
09:39 10.9 °C 3.7 °C 1011.0 hPa South 7.6 km/h 14.8 km/h 61% 0.0 mm CLR
09:44 11.1 °C 3.6 °C 1011.0 hPa SW 7.6 km/h 11.1 km/h 60% 0.0 mm CLR
09:49 11.2 °C 3.7 °C 1011.0 hPa SW 8.4 km/h 9.3 km/h 60% 0.0 mm CLR
09:54 11.3 °C 3.8 °C 1011.0 hPa West 8.4 km/h 5.8 km/h 60% 0.0 mm CLR
09:59 11.3 °C 3.8 °C 1011.0 hPa WSW 5.0 km/h 9.3 km/h 60% 0.0 mm CLR
10:04 11.4 °C 3.9 °C 1011.3 hPa WSW 5.0 km/h 5.6 km/h 60% 0.0 mm CLR
10:09 11.7 °C 3.7 °C 1011.3 hPa WSW 5.8 km/h 8.4 km/h 58% 0.0 mm CLR
10:14 11.9 °C 3.9 °C 1011.3 hPa SW 5.8 km/h 7.4 km/h 58% 0.0 mm CLR
10:19 12.3 °C 4.0 °C 1011.3 hPa SSW 6.4 km/h 10.3 km/h 57% 0.0 mm CLR
10:24 12.8 °C 3.7 °C 1011.3 hPa SSW 6.4 km/h 11.1 km/h 54% 0.0 mm CLR
10:29 13.3 °C 3.9 °C 1011.3 hPa SW 6.9 km/h 9.3 km/h 53% 0.0 mm CLR
10:34 13.6 °C 3.9 °C 1011.6 hPa SSW 6.9 km/h 11.1 km/h 52% 0.0 mm CLR
10:39 13.9 °C 3.9 °C 1011.6 hPa SW 6.9 km/h 7.4 km/h 51% 0.0 mm CLR
10:45 14.1 °C 4.1 °C 1011.6 hPa SW 6.9 km/h 9.3 km/h 51% 0.0 mm CLR
10:49 14.3 °C 4.0 °C 1011.6 hPa SW 5.8 km/h 11.1 km/h 50% 0.0 mm CLR
10:54 14.4 °C 3.8 °C 1011.6 hPa SW 5.8 km/h 11.1 km/h 49% 0.0 mm CLR
10:59 14.4 °C 3.8 °C 1011.6 hPa WSW 8.4 km/h 14.8 km/h 49% 0.0 mm CLR
11:04 14.5 °C 4.2 °C 1011.5 hPa SW 8.4 km/h 13.0 km/h 50% 0.0 mm CLR
11:09 14.7 °C 4.4 °C 1011.5 hPa SSW 7.6 km/h 5.6 km/h 50% 0.0 mm CLR
11:15 14.8 °C 4.2 °C 1011.5 hPa SW 8.0 km/h 8.0 km/h 49% 0.0 mm CLR
11:19 15.1 °C 3.8 °C 1011.8 hPa West 3.9 km/h 14.8 km/h 47% 0.0 mm CLR
11:24 15.3 °C 4.1 °C 1011.8 hPa West 3.9 km/h 11.1 km/h 47% 0.0 mm CLR
11:29 15.5 °C 3.6 °C 1011.8 hPa NW 8.7 km/h 18.3 km/h 45% 0.0 mm CLR
11:34 15.6 °C 3.4 °C 1011.6 hPa WNW 8.7 km/h 20.4 km/h 44% 0.0 mm CLR
11:39 15.6 °C 3.4 °C 1011.6 hPa WNW 12.2 km/h 16.7 km/h 44% 0.0 mm CLR
11:44 15.8 °C 3.2 °C 1011.6 hPa WNW 12.2 km/h 18.5 km/h 43% 0.0 mm CLR
11:49 16.0 °C 3.1 °C 1011.7 hPa NNW 12.2 km/h 20.9 km/h 42% 0.0 mm CLR
11:54 16.1 °C 3.2 °C 1011.7 hPa NW 12.2 km/h 22.2 km/h 42% 0.0 mm CLR
11:59 16.2 °C 3.3 °C 1011.7 hPa WNW 13.0 km/h 24.1 km/h 42% 0.0 mm CLR
12:04 16.2 °C 2.9 °C 1011.8 hPa West 13.0 km/h 25.9 km/h 41% 0.0 mm CLR
12:09 16.2 °C 2.9 °C 1011.8 hPa West 13.0 km/h 20.4 km/h 41% 0.0 mm CLR
12:14 16.2 °C 2.9 °C 1011.8 hPa WNW 13.0 km/h 16.7 km/h 41% 0.0 mm CLR
12:19 16.3 °C 3.0 °C 1011.7 hPa NNW 12.2 km/h 10.0 km/h 41% 0.0 mm CLR
12:25 16.4 °C 3.1 °C 1011.7 hPa NW 12.2 km/h 25.9 km/h 41% 0.0 mm CLR
12:29 16.4 °C 2.8 °C 1011.7 hPa NNW 11.9 km/h 13.0 km/h 40% 0.0 mm CLR
12:35 16.4 °C 2.8 °C 1011.5 hPa NW 11.3 km/h 22.5 km/h 40% 0.0 mm CLR
12:39 16.4 °C 2.8 °C 1011.5 hPa WSW 13.0 km/h 13.7 km/h 40% 0.0 mm CLR
12:45 16.4 °C 2.8 °C 1011.5 hPa West 12.9 km/h 22.5 km/h 40% 0.0 mm CLR
12:50 16.3 °C 2.7 °C 1011.3 hPa WNW 11.3 km/h 22.5 km/h 40% 0.0 mm CLR
12:54 16.3 °C 2.7 °C 1011.3 hPa WNW 11.9 km/h 16.7 km/h 40% 0.0 mm CLR
12:59 16.4 °C 2.8 °C 1011.3 hPa WNW 11.9 km/h 16.7 km/h 40% 0.0 mm CLR
13:04 16.6 °C 2.6 °C 1011.2 hPa West 11.9 km/h 9.3 km/h 39% 0.0 mm CLR
13:10 16.5 °C 2.5 °C 1011.2 hPa West 8.7 km/h 7.6 km/h 39% 0.0 mm CLR
13:15 16.6 °C 2.6 °C 1011.2 hPa West 9.7 km/h 16.1 km/h 39% 0.0 mm CLR
13:19 16.4 °C 2.4 °C 1011.0 hPa SW 8.4 km/h 13.0 km/h 39% 0.0 mm CLR
13:24 16.5 °C 2.5 °C 1011.0 hPa WSW 8.4 km/h 18.0 km/h 39% 0.0 mm CLR
13:30 16.4 °C 2.1 °C 1011.0 hPa SW 9.7 km/h 19.3 km/h 38% 0.0 mm CLR
13:34 16.6 °C 2.2 °C 1010.7 hPa SW 8.7 km/h 16.7 km/h 38% 0.0 mm CLR
13:39 16.5 °C 2.1 °C 1010.7 hPa WNW 8.7 km/h 16.7 km/h 38% 0.0 mm CLR
13:44 16.6 °C 2.2 °C 1010.7 hPa WNW 8.7 km/h 20.4 km/h 38% 0.0 mm CLR
13:49 16.6 °C 2.2 °C 1010.4 hPa SSW 11.1 km/h 11.1 km/h 38% 0.0 mm FEW
13:55 16.8 °C 2.4 °C 1010.4 hPa SW 11.3 km/h 14.5 km/h 38% 0.0 mm FEW
14:00 16.8 °C 2.4 °C 1010.4 hPa SSW 9.7 km/h 17.7 km/h 38% 0.0 mm FEW
14:05 16.8 °C 2.4 °C 1010.1 hPa ESE 9.5 km/h 13.0 km/h 38% 0.0 mm FEW
14:09 16.7 °C 2.7 °C 1010.1 hPa WSW 11.1 km/h 11.1 km/h 39% 0.0 mm FEW
14:15 16.8 °C 2.4 °C 1010.1 hPa SW 11.1 km/h 13.0 km/h 38% 0.0 mm FEW
14:20 16.9 °C 2.5 °C 1009.9 hPa SSW 9.7 km/h 14.5 km/h 38% 0.0 mm FEW
14:25 16.9 °C 2.5 °C 1009.9 hPa SSW 9.7 km/h 16.1 km/h 38% 0.0 mm FEW
14:30 17.1 °C 2.6 °C 1009.9 hPa SSW 9.7 km/h 16.1 km/h 38% 0.0 mm FEW
14:34 17.2 °C 2.4 °C 1009.5 hPa SE 8.7 km/h 13.0 km/h 37% 0.0 mm FEW
14:39 17.1 °C 2.3 °C 1009.5 hPa SSE 10.3 km/h 14.8 km/h 37% 0.0 mm FEW
14:45 17.2 °C 2.0 °C 1009.5 hPa South 10.3 km/h 11.1 km/h 36% 0.0 mm FEW
14:49 17.4 °C 2.2 °C 1009.2 hPa WSW 7.6 km/h 9.5 km/h 36% 0.0 mm FEW
14:55 17.3 °C 2.1 °C 1009.2 hPa SW 8.0 km/h 19.3 km/h 36% 0.0 mm FEW
15:00 17.2 °C 1.6 °C 1009.2 hPa West 8.0 km/h 12.9 km/h 35% 0.0 mm FEW
15:05 17.2 °C 0.4 °C 1009.0 hPa WNW 8.0 km/h 24.1 km/h 32% 0.0 mm FEW
15:09 17.5 °C 0.2 °C 1009.0 hPa WNW 10.3 km/h 18.5 km/h 31% 0.0 mm FEW
15:14 17.5 °C -0.3 °C 1009.0 hPa NW 10.3 km/h 16.7 km/h 30% 0.0 mm FEW
15:19 17.6 °C -0.2 °C 1009.0 hPa NW 10.3 km/h 13.0 km/h 30% 0.0 mm FEW
15:24 17.6 °C 0.3 °C 1009.0 hPa WSW 10.3 km/h 25.9 km/h 31% 0.0 mm FEW
15:29 17.6 °C -0.2 °C 1009.0 hPa WNW 12.2 km/h 20.4 km/h 30% 0.0 mm FEW
15:34 17.5 °C -0.3 °C 1008.7 hPa WNW 12.2 km/h 18.3 km/h 30% 0.0 mm FEW
15:39 17.5 °C -0.3 °C 1008.7 hPa WNW 11.1 km/h 20.4 km/h 30% 0.0 mm FEW
15:44 17.5 °C 0.2 °C 1008.7 hPa NNW 11.1 km/h 11.1 km/h 31% 0.0 mm FEW
15:49 17.6 °C 0.3 °C 1008.7 hPa WNW 10.0 km/h 15.6 km/h 31% 0.0 mm FEW
15:55 17.6 °C 0.3 °C 1008.7 hPa West 10.0 km/h 11.1 km/h 31% 0.0 mm FEW
15:59 17.6 °C 0.3 °C 1008.7 hPa WNW 10.3 km/h 14.8 km/h 31% 0.0 mm FEW
16:05 17.7 °C 0.3 °C 1008.6 hPa WNW 11.3 km/h 19.3 km/h 31% 0.0 mm FEW
16:09 17.7 °C 0.3 °C 1008.6 hPa West 10.3 km/h 14.8 km/h 31% 0.0 mm FEW
16:14 17.6 °C 0.7 °C 1008.6 hPa West 10.3 km/h 20.4 km/h 32% 0.0 mm FEW
16:19 17.5 °C 0.2 °C 1008.5 hPa WSW 11.1 km/h 27.8 km/h 31% 0.0 mm FEW
16:25 17.5 °C 0.2 °C 1008.5 hPa WNW 11.3 km/h 19.3 km/h 31% 0.0 mm FEW
16:29 17.4 °C 0.5 °C 1008.5 hPa West 11.9 km/h 11.9 km/h 32% 0.0 mm FEW
16:34 17.4 °C 0.5 °C 1008.5 hPa NW 11.9 km/h 19.8 km/h 32% 0.0 mm FEW
16:39 17.3 °C 0.4 °C 1008.5 hPa NW 10.0 km/h 16.7 km/h 32% 0.0 mm FEW
16:44 17.2 °C 0.3 °C 1008.5 hPa NW 10.0 km/h 14.8 km/h 32% 0.0 mm FEW
16:49 17.2 °C 0.3 °C 1008.5 hPa WNW 11.1 km/h 13.7 km/h 32% 0.0 mm FEW
16:55 17.2 °C 0.8 °C 1008.5 hPa WNW 11.3 km/h 14.5 km/h 33% 0.0 mm FEW
16:59 17.1 °C 0.3 °C 1008.5 hPa WNW 9.5 km/h 16.7 km/h 32% 0.0 mm FEW
17:04 17.1 °C 0.7 °C 1008.5 hPa WNW 9.5 km/h 13.0 km/h 33% 0.0 mm FEW
17:10 16.9 °C 0.5 °C 1008.5 hPa WNW 9.7 km/h 19.3 km/h 33% 0.0 mm FEW
17:14 16.9 °C 0.5 °C 1008.5 hPa West 9.5 km/h 16.7 km/h 33% 0.0 mm FEW
17:20 16.8 °C 0.4 °C 1008.5 hPa WNW 11.3 km/h 20.9 km/h 33% 0.0 mm FEW
17:25 16.8 °C 0.4 °C 1008.5 hPa NW 11.1 km/h 13.0 km/h 33% 0.0 mm FEW
17:30 16.8 °C 0.8 °C 1008.5 hPa WNW 11.3 km/h 19.3 km/h 34% 0.0 mm FEW
17:35 16.7 °C 0.7 °C 1008.6 hPa WNW 10.3 km/h 18.5 km/h 34% 0.0 mm FEW
17:39 16.6 °C 0.7 °C 1008.6 hPa NNW 12.2 km/h 20.4 km/h 34% 0.0 mm FEW
17:45 16.5 °C 0.6 °C 1008.6 hPa NW 12.9 km/h 17.7 km/h 34% 0.0 mm FEW
17:50 16.4 °C 0.9 °C 1008.5 hPa WNW 10.3 km/h 17.2 km/h 35% 0.0 mm CLR
17:55 16.3 °C 0.8 °C 1008.5 hPa WNW 11.3 km/h 19.3 km/h 35% 0.0 mm CLR
17:59 16.2 °C 0.7 °C 1008.5 hPa WNW 11.9 km/h 14.8 km/h 35% 0.0 mm CLR
18:05 16.2 °C 0.7 °C 1008.5 hPa WNW 11.3 km/h 14.5 km/h 35% 0.0 mm CLR
18:09 16.0 °C 0.9 °C 1008.5 hPa West 9.5 km/h 14.8 km/h 36% 0.0 mm CLR
18:14 15.9 °C 0.8 °C 1008.5 hPa NW 9.5 km/h 16.7 km/h 36% 0.0 mm CLR
18:20 15.8 °C 0.7 °C 1008.7 hPa WNW 9.7 km/h 16.1 km/h 36% 0.0 mm CLR
18:25 15.8 °C 0.7 °C 1008.7 hPa WNW 9.7 km/h 12.9 km/h 36% 0.0 mm CLR
18:29 15.8 °C 0.7 °C 1008.7 hPa WNW 6.9 km/h 7.4 km/h 36% 0.0 mm CLR
18:35 15.7 °C 0.7 °C 1008.7 hPa WNW 8.0 km/h 9.7 km/h 36% 0.0 mm CLR
18:40 15.6 °C 0.9 °C 1008.7 hPa WNW 5.0 km/h 9.3 km/h 37% 0.0 mm CLR
18:44 15.5 °C 0.8 °C 1008.7 hPa WNW 5.0 km/h 11.1 km/h 37% 0.0 mm CLR
18:50 15.4 °C 0.8 °C 1008.7 hPa WNW 8.0 km/h 19.3 km/h 37% 0.0 mm FEW
18:55 15.3 °C 0.7 °C 1008.7 hPa WNW 8.0 km/h 16.1 km/h 37% 0.0 mm FEW
18:59 15.3 °C 0.7 °C 1008.7 hPa NW 10.3 km/h 14.8 km/h 37% 0.0 mm FEW
19:05 15.3 °C 0.6 °C 1008.7 hPa WNW 11.3 km/h 22.5 km/h 37% 0.0 mm FEW
19:10 15.2 °C 0.6 °C 1008.7 hPa WNW 12.9 km/h 22.5 km/h 37% 0.0 mm FEW
19:14 15.2 °C 0.6 °C 1008.7 hPa WNW 12.2 km/h 20.4 km/h 37% 0.0 mm FEW
19:20 15.1 °C 0.5 °C 1008.7 hPa WNW 12.9 km/h 16.1 km/h 37% 0.0 mm FEW
19:25 15.1 °C 0.5 °C 1008.7 hPa WNW 12.2 km/h 13.0 km/h 37% 0.0 mm FEW
19:30 15.0 °C 0.4 °C 1008.7 hPa WNW 9.7 km/h 12.9 km/h 37% 0.0 mm FEW
19:35 15.0 °C 0.8 °C 1008.8 hPa WNW 9.7 km/h 12.9 km/h 38% 0.0 mm FEW
19:39 14.9 °C 0.7 °C 1008.8 hPa West 6.4 km/h 7.4 km/h 38% 0.0 mm FEW
19:45 14.9 °C 0.7 °C 1008.8 hPa West 8.0 km/h 9.7 km/h 38% 0.0 mm FEW
19:50 14.9 °C 0.7 °C 1009.0 hPa SW 4.8 km/h 9.7 km/h 38% 0.0 mm CLR
19:55 14.8 °C 0.9 °C 1009.0 hPa SSW 4.8 km/h 9.7 km/h 39% 0.0 mm CLR
20:00 14.8 °C 0.9 °C 1009.0 hPa SSW 4.8 km/h 9.7 km/h 39% 0.0 mm CLR
20:05 14.7 °C 0.9 °C 1008.9 hPa SW 4.8 km/h 9.7 km/h 39% 0.0 mm CLR
20:10 14.6 °C 0.8 °C 1008.9 hPa SW 8.0 km/h 11.3 km/h 39% 0.0 mm CLR
20:14 14.6 °C 0.8 °C 1008.9 hPa WSW 6.4 km/h 9.3 km/h 39% 0.0 mm CLR
20:20 14.7 °C 0.9 °C 1008.9 hPa SW 8.0 km/h 11.3 km/h 39% 0.0 mm CLR
20:25 14.7 °C 0.9 °C 1008.9 hPa South 8.0 km/h 11.3 km/h 39% 0.0 mm CLR
20:29 14.6 °C 1.1 °C 1008.9 hPa SSE 7.6 km/h 11.1 km/h 40% 0.0 mm CLR
20:35 14.4 °C 0.9 °C 1008.9 hPa South 8.0 km/h 14.5 km/h 40% 0.0 mm CLR
20:40 14.3 °C 0.9 °C 1008.9 hPa South 9.7 km/h 12.9 km/h 40% 0.0 mm CLR
20:45 14.3 °C 0.9 °C 1008.9 hPa SW 9.7 km/h 9.7 km/h 40% 0.0 mm CLR
20:50 14.3 °C 0.9 °C 1008.8 hPa WSW 5.0 km/h 7.6 km/h 40% 0.0 mm CLR
20:55 14.3 °C 0.9 °C 1008.8 hPa WSW 4.8 km/h 8.0 km/h 40% 0.0 mm CLR
20:59 14.3 °C 0.9 °C 1008.8 hPa West 4.7 km/h 5.6 km/h 40% 0.0 mm CLR
21:05 14.3 °C 0.9 °C 1008.8 hPa West 4.7 km/h 7.4 km/h 40% 0.0 mm CLR
21:10 14.3 °C 0.9 °C 1008.8 hPa WSW 5.0 km/h 7.4 km/h 40% 0.0 mm CLR
21:15 14.3 °C 0.9 °C 1008.8 hPa SW 5.0 km/h 9.3 km/h 40% 0.0 mm CLR
21:20 14.4 °C 0.6 °C 1008.7 hPa WSW 8.0 km/h 9.7 km/h 39% 0.0 mm CLR
21:25 14.4 °C 0.9 °C 1008.7 hPa WSW 8.0 km/h 8.0 km/h 40% 0.0 mm CLR
21:29 14.4 °C 0.9 °C 1008.7 hPa West 4.7 km/h 7.4 km/h 40% 0.0 mm CLR
21:35 14.3 °C 0.9 °C 1008.6 hPa West 3.2 km/h 9.7 km/h 40% 0.0 mm CLR
21:40 14.3 °C 0.9 °C 1008.6 hPa West 5.0 km/h 5.6 km/h 40% 0.0 mm CLR
21:45 14.3 °C 0.9 °C 1008.6 hPa West 4.8 km/h 8.0 km/h 40% 0.0 mm CLR
21:50 14.2 °C 0.8 °C 1008.5 hPa West 3.2 km/h 5.6 km/h 40% 0.0 mm CLR
21:55 14.2 °C 0.8 °C 1008.5 hPa West 3.2 km/h 9.7 km/h 40% 0.0 mm CLR
22:00 14.2 °C 0.8 °C 1008.5 hPa WSW 3.2 km/h 8.0 km/h 40% 0.0 mm CLR
22:05 14.2 °C 0.8 °C 1008.4 hPa WSW 3.2 km/h 9.7 km/h 40% 0.0 mm CLR
22:10 14.2 °C 1.4 °C 1008.4 hPa SW 4.7 km/h 5.6 km/h 42% 0.0 mm CLR
22:15 14.1 °C 1.1 °C 1008.4 hPa SSW 4.7 km/h 9.3 km/h 41% 0.0 mm CLR
22:20 14.1 °C 1.1 °C 1008.4 hPa South 4.8 km/h 9.7 km/h 41% 0.0 mm CLR
22:25 14.1 °C 1.1 °C 1008.4 hPa SSE 5.0 km/h 3.9 km/h 41% 0.0 mm CLR
22:29 14.0 °C 0.9 °C 1008.4 hPa South 3.2 km/h 7.4 km/h 41% 0.0 mm CLR
22:35 14.1 °C 1.0 °C 1008.4 hPa South 3.2 km/h 9.7 km/h 41% 0.0 mm CLR
22:40 14.1 °C 1.0 °C 1008.4 hPa SSW 4.8 km/h 9.7 km/h 41% 0.0 mm CLR
22:45 14.0 °C 0.9 °C 1008.4 hPa SSW 4.8 km/h 11.3 km/h 41% 0.0 mm CLR
22:50 13.9 °C 0.9 °C 1008.4 hPa South 8.0 km/h 14.5 km/h 41% 0.0 mm CLR
22:55 13.9 °C 0.8 °C 1008.4 hPa SSW 7.6 km/h 9.3 km/h 41% 0.0 mm CLR
23:00 13.9 °C 1.2 °C 1008.4 hPa SSW 8.0 km/h 8.0 km/h 42% 0.0 mm CLR
23:05 13.9 °C 1.2 °C 1008.3 hPa SSW 8.0 km/h 8.0 km/h 42% 0.0 mm CLR
23:10 13.9 °C 1.2 °C 1008.3 hPa SW 5.0 km/h 7.4 km/h 42% 0.0 mm CLR
23:15 13.9 °C 1.2 °C 1008.3 hPa SW 4.8 km/h 9.7 km/h 42% 0.0 mm CLR
23:20 13.9 °C 1.2 °C 1008.2 hPa WSW 3.2 km/h 4.8 km/h 42% 0.0 mm CLR
23:25 13.8 °C 1.4 °C 1008.2 hPa WSW 3.2 km/h 8.0 km/h 43% 0.0 mm CLR
23:29 13.6 °C 1.6 °C 1008.2 hPa ESE 3.2 km/h 5.6 km/h 44% 0.0 mm CLR
23:35 13.4 °C 1.7 °C 1008.1 hPa ESE 3.2 km/h 3.7 km/h 45% 0.0 mm CLR
23:40 13.4 °C 1.7 °C 1008.1 hPa ESE 2.3 km/h 3.7 km/h 45% 0.0 mm CLR
23:45 13.3 °C 1.6 °C 1008.1 hPa ESE 1.6 km/h 6.4 km/h 45% 0.0 mm CLR
23:50 13.3 °C 1.9 °C 1008.1 hPa NNW 3.2 km/h 8.0 km/h 46% 0.0 mm CLR
23:55 13.2 °C 1.8 °C 1008.1 hPa NW 3.2 km/h 4.8 km/h 46% 0.0 mm CLR
23:59 13.2 °C 2.1 °C 1008.1 hPa NW 2.9 km/h   47% 0.0 mm CLR
Murcia-Puente Tocinos, España
Compliments of Weather Underground - 2.75 mb

La estación de MeteoMurcia.com, publica sus datos en los siguientes proyectos:

Weather Underground PWS IMURCIAP2 Meteoclimatic www.awekas.at

W3Counter
Web Analytics